sensor_id;sensor_type;location;lat;lon;timestamp;temperature;humidity
48860;DHT22;34679;51.436;-2.518;2022-10-16T00:00:03;11.70;99.90
48860;DHT22;34679;51.436;-2.518;2022-10-16T00:02:29;11.80;99.90
48860;DHT22;34679;51.436;-2.518;2022-10-16T00:04:54;11.80;99.90
48860;DHT22;34679;51.436;-2.518;2022-10-16T00:07:20;11.80;99.90
48860;DHT22;34679;51.436;-2.518;2022-10-16T00:09:46;11.70;99.90
48860;DHT22;34679;51.436;-2.518;2022-10-16T00:12:11;11.70;99.90
48860;DHT22;34679;51.436;-2.518;2022-10-16T00:14:37;11.70;99.90
48860;DHT22;34679;51.436;-2.518;2022-10-16T00:17:06;11.60;99.90
48860;DHT22;34679;51.436;-2.518;2022-10-16T00:19:31;11.50;99.90
48860;DHT22;34679;51.436;-2.518;2022-10-16T00:21:57;11.40;99.90
48860;DHT22;34679;51.436;-2.518;2022-10-16T00:24:23;11.40;99.90
48860;DHT22;34679;51.436;-2.518;2022-10-16T00:26:50;11.40;99.90
48860;DHT22;34679;51.436;-2.518;2022-10-16T00:29:16;11.30;99.90
48860;DHT22;34679;51.436;-2.518;2022-10-16T00:31:42;11.30;99.90
48860;DHT22;34679;51.436;-2.518;2022-10-16T00:34:07;11.30;99.90
48860;DHT22;34679;51.436;-2.518;2022-10-16T00:36:33;11.20;99.90
48860;DHT22;34679;51.436;-2.518;2022-10-16T00:38:59;11.30;99.90
48860;DHT22;34679;51.436;-2.518;2022-10-16T00:41:27;11.20;99.90
48860;DHT22;34679;51.436;-2.518;2022-10-16T00:43:58;11.20;99.90
48860;DHT22;34679;51.436;-2.518;2022-10-16T00:46:32;11.30;99.90
48860;DHT22;34679;51.436;-2.518;2022-10-16T00:49:05;11.20;99.90
48860;DHT22;34679;51.436;-2.518;2022-10-16T00:51:40;11.20;99.90
48860;DHT22;34679;51.436;-2.518;2022-10-16T00:54:13;11.20;99.90
48860;DHT22;34679;51.436;-2.518;2022-10-16T00:56:43;11.10;99.90
48860;DHT22;34679;51.436;-2.518;2022-10-16T00:59:37;11.10;99.90
48860;DHT22;34679;51.436;-2.518;2022-10-16T01:02:08;11.20;99.90
48860;DHT22;34679;51.436;-2.518;2022-10-16T01:04:50;11.20;99.90
48860;DHT22;34679;51.436;-2.518;2022-10-16T01:15:31;11.20;99.90
48860;DHT22;34679;51.436;-2.518;2022-10-16T01:21:03;11.20;99.90
48860;DHT22;34679;51.436;-2.518;2022-10-16T01:29:42;11.20;99.90
48860;DHT22;34679;51.436;-2.518;2022-10-16T01:34:54;11.20;99.90
48860;DHT22;34679;51.436;-2.518;2022-10-16T01:37:54;11.10;99.90
48860;DHT22;34679;51.436;-2.518;2022-10-16T01:40:19;11.10;99.90
48860;DHT22;34679;51.436;-2.518;2022-10-16T01:42:51;11.10;99.90
48860;DHT22;34679;51.436;-2.518;2022-10-16T01:45:19;11.00;99.90
48860;DHT22;34679;51.436;-2.518;2022-10-16T01:47:46;11.00;99.90
48860;DHT22;34679;51.436;-2.518;2022-10-16T01:50:15;11.00;99.90
48860;DHT22;34679;51.436;-2.518;2022-10-16T01:52:45;11.00;99.90
48860;DHT22;34679;51.436;-2.518;2022-10-16T01:55:15;10.90;99.90
48860;DHT22;34679;51.436;-2.518;2022-10-16T01:57:44;10.90;99.90
48860;DHT22;34679;51.436;-2.518;2022-10-16T02:00:12;10.90;99.90
48860;DHT22;34679;51.436;-2.518;2022-10-16T02:02:41;10.90;99.90
48860;DHT22;34679;51.436;-2.518;2022-10-16T02:05:28;10.80;99.90
48860;DHT22;34679;51.436;-2.518;2022-10-16T02:07:56;10.80;99.90
48860;DHT22;34679;51.436;-2.518;2022-10-16T02:10:24;10.80;99.90
48860;DHT22;34679;51.436;-2.518;2022-10-16T02:13:00;10.80;99.90
48860;DHT22;34679;51.436;-2.518;2022-10-16T02:15:28;10.70;99.90
48860;DHT22;34679;51.436;-2.518;2022-10-16T02:17:55;10.70;99.90
48860;DHT22;34679;51.436;-2.518;2022-10-16T02:20:25;10.70;99.90
48860;DHT22;34679;51.436;-2.518;2022-10-16T02:22:56;10.70;99.90
48860;DHT22;34679;51.436;-2.518;2022-10-16T02:25:37;10.70;99.90
48860;DHT22;34679;51.436;-2.518;2022-10-16T02:31:10;10.70;99.90
48860;DHT22;34679;51.436;-2.518;2022-10-16T02:33:38;10.60;99.90
48860;DHT22;34679;51.436;-2.518;2022-10-16T02:36:06;10.60;99.90
48860;DHT22;34679;51.436;-2.518;2022-10-16T02:38:32;10.60;99.90
48860;DHT22;34679;51.436;-2.518;2022-10-16T02:41:02;10.60;99.90
48860;DHT22;34679;51.436;-2.518;2022-10-16T02:43:28;10.60;99.90
48860;DHT22;34679;51.436;-2.518;2022-10-16T02:45:54;10.70;99.90
48860;DHT22;34679;51.436;-2.518;2022-10-16T02:48:21;10.60;99.90
48860;DHT22;34679;51.436;-2.518;2022-10-16T02:50:46;10.60;99.90
48860;DHT22;34679;51.436;-2.518;2022-10-16T02:53:12;10.60;99.90
48860;DHT22;34679;51.436;-2.518;2022-10-16T02:55:38;10.60;99.90
48860;DHT22;34679;51.436;-2.518;2022-10-16T02:58:04;10.60;99.90
48860;DHT22;34679;51.436;-2.518;2022-10-16T03:00:30;10.70;99.90
48860;DHT22;34679;51.436;-2.518;2022-10-16T03:02:55;10.60;99.90
48860;DHT22;34679;51.436;-2.518;2022-10-16T03:05:21;10.60;99.90
48860;DHT22;34679;51.436;-2.518;2022-10-16T03:07:47;10.60;99.90
48860;DHT22;34679;51.436;-2.518;2022-10-16T03:10:13;10.60;99.90
48860;DHT22;34679;51.436;-2.518;2022-10-16T03:12:38;10.50;99.90
48860;DHT22;34679;51.436;-2.518;2022-10-16T03:15:09;10.50;99.90
48860;DHT22;34679;51.436;-2.518;2022-10-16T03:17:37;10.40;99.90
48860;DHT22;34679;51.436;-2.518;2022-10-16T03:20:06;10.40;99.90
48860;DHT22;34679;51.436;-2.518;2022-10-16T03:22:32;10.30;99.90
48860;DHT22;34679;51.436;-2.518;2022-10-16T03:24:58;10.30;99.90
48860;DHT22;34679;51.436;-2.518;2022-10-16T03:27:23;10.30;99.90
48860;DHT22;34679;51.436;-2.518;2022-10-16T03:29:52;10.30;99.90
48860;DHT22;34679;51.436;-2.518;2022-10-16T03:32:18;10.40;99.90
48860;DHT22;34679;51.436;-2.518;2022-10-16T03:34:45;10.40;99.90
48860;DHT22;34679;51.436;-2.518;2022-10-16T03:37:11;10.50;99.90
48860;DHT22;34679;51.436;-2.518;2022-10-16T03:39:37;10.50;99.90
48860;DHT22;34679;51.436;-2.518;2022-10-16T03:42:03;10.50;99.90
48860;DHT22;34679;51.436;-2.518;2022-10-16T03:44:29;10.60;99.90
48860;DHT22;34679;51.436;-2.518;2022-10-16T03:46:55;10.60;99.90
48860;DHT22;34679;51.436;-2.518;2022-10-16T03:49:21;10.70;99.90
48860;DHT22;34679;51.436;-2.518;2022-10-16T03:51:47;10.70;99.90
48860;DHT22;34679;51.436;-2.518;2022-10-16T03:54:16;10.70;99.90
48860;DHT22;34679;51.436;-2.518;2022-10-16T03:56:41;10.70;99.90
48860;DHT22;34679;51.436;-2.518;2022-10-16T03:59:07;10.60;99.90
48860;DHT22;34679;51.436;-2.518;2022-10-16T04:01:33;10.60;99.90
48860;DHT22;34679;51.436;-2.518;2022-10-16T04:03:59;10.60;99.90
48860;DHT22;34679;51.436;-2.518;2022-10-16T04:06:25;10.50;99.90
48860;DHT22;34679;51.436;-2.518;2022-10-16T04:09:02;10.40;99.90
48860;DHT22;34679;51.436;-2.518;2022-10-16T04:11:28;10.30;99.90
48860;DHT22;34679;51.436;-2.518;2022-10-16T04:13:57;10.20;99.90
48860;DHT22;34679;51.436;-2.518;2022-10-16T04:16:22;10.20;99.90
48860;DHT22;34679;51.436;-2.518;2022-10-16T04:18:48;10.10;99.90
48860;DHT22;34679;51.436;-2.518;2022-10-16T04:21:14;10.00;99.90
48860;DHT22;34679;51.436;-2.518;2022-10-16T04:23:40;9.90;99.90
48860;DHT22;34679;51.436;-2.518;2022-10-16T04:26:08;9.90;99.90
48860;DHT22;34679;51.436;-2.518;2022-10-16T04:28:36;9.80;99.90
48860;DHT22;34679;51.436;-2.518;2022-10-16T04:31:04;9.70;99.90
48860;DHT22;34679;51.436;-2.518;2022-10-16T04:33:30;9.70;99.90
48860;DHT22;34679;51.436;-2.518;2022-10-16T04:35:57;9.60;99.90
48860;DHT22;34679;51.436;-2.518;2022-10-16T04:38:23;9.50;99.90
48860;DHT22;34679;51.436;-2.518;2022-10-16T04:40:49;9.40;99.90
48860;DHT22;34679;51.436;-2.518;2022-10-16T04:43:15;9.40;99.90
48860;DHT22;34679;51.436;-2.518;2022-10-16T04:45:41;9.20;99.90
48860;DHT22;34679;51.436;-2.518;2022-10-16T04:48:06;9.20;99.90
48860;DHT22;34679;51.436;-2.518;2022-10-16T04:50:32;9.20;99.90
48860;DHT22;34679;51.436;-2.518;2022-10-16T04:52:58;9.10;99.90
48860;DHT22;34679;51.436;-2.518;2022-10-16T04:55:24;9.20;99.90
48860;DHT22;34679;51.436;-2.518;2022-10-16T04:57:49;9.30;99.90
48860;DHT22;34679;51.436;-2.518;2022-10-16T05:00:15;9.30;99.90
48860;DHT22;34679;51.436;-2.518;2022-10-16T05:02:41;9.30;99.90
48860;DHT22;34679;51.436;-2.518;2022-10-16T05:05:07;9.30;99.90
48860;DHT22;34679;51.436;-2.518;2022-10-16T05:07:33;9.40;99.90
48860;DHT22;34679;51.436;-2.518;2022-10-16T05:09:59;9.40;99.90
48860;DHT22;34679;51.436;-2.518;2022-10-16T05:12:24;9.40;99.90
48860;DHT22;34679;51.436;-2.518;2022-10-16T05:14:50;9.30;99.90
48860;DHT22;34679;51.436;-2.518;2022-10-16T05:17:19;9.30;99.90
48860;DHT22;34679;51.436;-2.518;2022-10-16T05:19:48;9.30;99.90
48860;DHT22;34679;51.436;-2.518;2022-10-16T05:22:14;9.20;99.90
48860;DHT22;34679;51.436;-2.518;2022-10-16T05:24:39;9.10;99.90
48860;DHT22;34679;51.436;-2.518;2022-10-16T05:27:05;9.00;99.90
48860;DHT22;34679;51.436;-2.518;2022-10-16T05:29:31;9.00;99.90
48860;DHT22;34679;51.436;-2.518;2022-10-16T05:31:57;9.00;99.90
48860;DHT22;34679;51.436;-2.518;2022-10-16T05:34:23;9.10;99.90
48860;DHT22;34679;51.436;-2.518;2022-10-16T05:36:48;9.20;99.90
48860;DHT22;34679;51.436;-2.518;2022-10-16T05:39:15;9.20;99.90
48860;DHT22;34679;51.436;-2.518;2022-10-16T05:41:44;9.30;99.90
48860;DHT22;34679;51.436;-2.518;2022-10-16T05:44:10;9.30;99.90
48860;DHT22;34679;51.436;-2.518;2022-10-16T05:46:38;9.40;99.90
48860;DHT22;34679;51.436;-2.518;2022-10-16T05:49:04;9.40;99.90
48860;DHT22;34679;51.436;-2.518;2022-10-16T05:51:30;9.30;99.90
48860;DHT22;34679;51.436;-2.518;2022-10-16T05:53:56;9.30;99.90
48860;DHT22;34679;51.436;-2.518;2022-10-16T05:56:22;9.20;99.90
48860;DHT22;34679;51.436;-2.518;2022-10-16T05:58:47;9.10;99.90
48860;DHT22;34679;51.436;-2.518;2022-10-16T06:01:17;9.10;99.90
48860;DHT22;34679;51.436;-2.518;2022-10-16T06:03:44;9.00;99.90
48860;DHT22;34679;51.436;-2.518;2022-10-16T06:06:11;9.00;99.90
48860;DHT22;34679;51.436;-2.518;2022-10-16T06:08:37;8.90;99.90
48860;DHT22;34679;51.436;-2.518;2022-10-16T06:11:05;8.80;99.90
48860;DHT22;34679;51.436;-2.518;2022-10-16T06:13:31;8.80;99.90
48860;DHT22;34679;51.436;-2.518;2022-10-16T06:15:58;8.80;99.90
48860;DHT22;34679;51.436;-2.518;2022-10-16T06:18:26;8.70;99.90
48860;DHT22;34679;51.436;-2.518;2022-10-16T06:20:51;8.70;99.90
48860;DHT22;34679;51.436;-2.518;2022-10-16T06:23:17;8.70;99.90
48860;DHT22;34679;51.436;-2.518;2022-10-16T06:25:43;8.60;99.90
48860;DHT22;34679;51.436;-2.518;2022-10-16T06:28:13;8.60;99.90
48860;DHT22;34679;51.436;-2.518;2022-10-16T06:30:42;8.60;99.90
48860;DHT22;34679;51.436;-2.518;2022-10-16T06:33:11;8.50;99.90
48860;DHT22;34679;51.436;-2.518;2022-10-16T06:35:40;8.50;99.90
48860;DHT22;34679;51.436;-2.518;2022-10-16T06:38:06;8.50;99.90
48860;DHT22;34679;51.436;-2.518;2022-10-16T06:40:32;8.40;99.90
48860;DHT22;34679;51.436;-2.518;2022-10-16T06:42:58;8.40;99.90
48860;DHT22;34679;51.436;-2.518;2022-10-16T06:45:24;8.50;99.90
48860;DHT22;34679;51.436;-2.518;2022-10-16T06:47:49;8.50;99.90
48860;DHT22;34679;51.436;-2.518;2022-10-16T06:50:15;8.50;99.90
48860;DHT22;34679;51.436;-2.518;2022-10-16T06:52:41;8.50;99.90
48860;DHT22;34679;51.436;-2.518;2022-10-16T06:55:09;8.50;99.90
48860;DHT22;34679;51.436;-2.518;2022-10-16T06:57:35;8.40;99.90
48860;DHT22;34679;51.436;-2.518;2022-10-16T07:00:01;8.50;99.90
48860;DHT22;34679;51.436;-2.518;2022-10-16T07:02:29;8.50;99.90
48860;DHT22;34679;51.436;-2.518;2022-10-16T07:04:55;8.60;99.90
48860;DHT22;34679;51.436;-2.518;2022-10-16T07:07:22;8.70;99.90
48860;DHT22;34679;51.436;-2.518;2022-10-16T07:09:50;9.10;99.90
48860;DHT22;34679;51.436;-2.518;2022-10-16T07:12:16;9.50;99.90
48860;DHT22;34679;51.436;-2.518;2022-10-16T07:14:41;9.90;99.90
48860;DHT22;34679;51.436;-2.518;2022-10-16T07:17:07;10.20;99.90
48860;DHT22;34679;51.436;-2.518;2022-10-16T07:19:33;10.60;99.90
48860;DHT22;34679;51.436;-2.518;2022-10-16T07:21:59;11.20;99.90
48860;DHT22;34679;51.436;-2.518;2022-10-16T07:24:24;11.90;99.90
48860;DHT22;34679;51.436;-2.518;2022-10-16T07:26:50;12.50;99.90
48860;DHT22;34679;51.436;-2.518;2022-10-16T07:29:20;13.10;99.90
48860;DHT22;34679;51.436;-2.518;2022-10-16T07:31:47;13.50;99.90
48860;DHT22;34679;51.436;-2.518;2022-10-16T07:34:15;14.10;99.90
48860;DHT22;34679;51.436;-2.518;2022-10-16T07:36:41;14.60;99.90
48860;DHT22;34679;51.436;-2.518;2022-10-16T07:39:07;15.20;99.90
48860;DHT22;34679;51.436;-2.518;2022-10-16T07:41:33;15.60;99.90
48860;DHT22;34679;51.436;-2.518;2022-10-16T07:44:02;16.10;99.90
48860;DHT22;34679;51.436;-2.518;2022-10-16T07:46:28;16.80;99.90
48860;DHT22;34679;51.436;-2.518;2022-10-16T07:48:54;17.30;99.90
48860;DHT22;34679;51.436;-2.518;2022-10-16T07:51:22;17.70;99.90
48860;DHT22;34679;51.436;-2.518;2022-10-16T07:53:49;17.50;99.90
48860;DHT22;34679;51.436;-2.518;2022-10-16T07:56:15;17.60;99.90
48860;DHT22;34679;51.436;-2.518;2022-10-16T07:58:41;17.90;99.90
48860;DHT22;34679;51.436;-2.518;2022-10-16T08:01:09;18.10;99.90
48860;DHT22;34679;51.436;-2.518;2022-10-16T08:03:35;18.60;99.90
48860;DHT22;34679;51.436;-2.518;2022-10-16T08:06:02;18.80;99.90
48860;DHT22;34679;51.436;-2.518;2022-10-16T08:08:28;18.80;99.90
48860;DHT22;34679;51.436;-2.518;2022-10-16T08:10:54;18.60;99.90
48860;DHT22;34679;51.436;-2.518;2022-10-16T08:13:20;18.40;99.90
48860;DHT22;34679;51.436;-2.518;2022-10-16T08:15:46;18.50;99.90
48860;DHT22;34679;51.436;-2.518;2022-10-16T08:18:13;18.50;99.90
48860;DHT22;34679;51.436;-2.518;2022-10-16T08:20:40;18.80;99.90
48860;DHT22;34679;51.436;-2.518;2022-10-16T08:23:06;18.80;99.90
48860;DHT22;34679;51.436;-2.518;2022-10-16T08:25:34;18.90;99.90
48860;DHT22;34679;51.436;-2.518;2022-10-16T08:28:00;19.50;99.90
48860;DHT22;34679;51.436;-2.518;2022-10-16T08:30:28;19.60;99.90
48860;DHT22;34679;51.436;-2.518;2022-10-16T08:32:53;19.90;99.90
48860;DHT22;34679;51.436;-2.518;2022-10-16T08:35:19;20.00;99.90
48860;DHT22;34679;51.436;-2.518;2022-10-16T08:37:45;20.10;99.90
48860;DHT22;34679;51.436;-2.518;2022-10-16T08:40:24;19.80;99.90
48860;DHT22;34679;51.436;-2.518;2022-10-16T08:43:15;19.90;99.90
48860;DHT22;34679;51.436;-2.518;2022-10-16T08:48:54;20.00;99.90
48860;DHT22;34679;51.436;-2.518;2022-10-16T08:51:36;20.00;99.90
48860;DHT22;34679;51.436;-2.518;2022-10-16T08:54:46;20.00;99.90
48860;DHT22;34679;51.436;-2.518;2022-10-16T08:56:57;20.50;99.90
48860;DHT22;34679;51.436;-2.518;2022-10-16T08:59:26;20.70;99.90
48860;DHT22;34679;51.436;-2.518;2022-10-16T09:01:52;20.90;99.90
48860;DHT22;34679;51.436;-2.518;2022-10-16T09:07:21;21.50;99.90
48860;DHT22;34679;51.436;-2.518;2022-10-16T09:13:29;22.00;99.90
48860;DHT22;34679;51.436;-2.518;2022-10-16T09:16:09;21.40;99.90
48860;DHT22;34679;51.436;-2.518;2022-10-16T09:19:20;21.10;99.90
48860;DHT22;34679;51.436;-2.518;2022-10-16T09:21:44;21.40;99.90
48860;DHT22;34679;51.436;-2.518;2022-10-16T09:24:21;20.90;99.90
48860;DHT22;34679;51.436;-2.518;2022-10-16T09:26:47;20.80;99.90
48860;DHT22;34679;51.436;-2.518;2022-10-16T09:29:18;20.30;99.90
48860;DHT22;34679;51.436;-2.518;2022-10-16T09:31:49;19.80;99.90
48860;DHT22;34679;51.436;-2.518;2022-10-16T09:34:31;19.30;99.90
48860;DHT22;34679;51.436;-2.518;2022-10-16T09:36:59;18.20;99.90
48860;DHT22;34679;51.436;-2.518;2022-10-16T09:39:26;17.60;99.90
48860;DHT22;34679;51.436;-2.518;2022-10-16T09:41:51;17.10;99.90
48860;DHT22;34679;51.436;-2.518;2022-10-16T09:44:29;16.90;99.90
48860;DHT22;34679;51.436;-2.518;2022-10-16T09:47:11;16.40;99.90
48860;DHT22;34679;51.436;-2.518;2022-10-16T09:49:38;16.40;99.90
48860;DHT22;34679;51.436;-2.518;2022-10-16T09:52:09;16.50;99.90
48860;DHT22;34679;51.436;-2.518;2022-10-16T09:54:36;16.60;99.90
48860;DHT22;34679;51.436;-2.518;2022-10-16T09:57:06;16.60;99.90
48860;DHT22;34679;51.436;-2.518;2022-10-16T09:59:33;16.40;99.90
48860;DHT22;34679;51.436;-2.518;2022-10-16T10:02:03;16.60;99.90
48860;DHT22;34679;51.436;-2.518;2022-10-16T10:04:40;16.60;99.90
48860;DHT22;34679;51.436;-2.518;2022-10-16T10:07:07;16.60;99.90
48860;DHT22;34679;51.436;-2.518;2022-10-16T10:09:44;16.40;99.90
48860;DHT22;34679;51.436;-2.518;2022-10-16T10:12:21;16.50;99.90
48860;DHT22;34679;51.436;-2.518;2022-10-16T10:14:50;16.40;99.90
48860;DHT22;34679;51.436;-2.518;2022-10-16T10:17:23;16.40;99.90
48860;DHT22;34679;51.436;-2.518;2022-10-16T10:19:54;16.30;99.90
48860;DHT22;34679;51.436;-2.518;2022-10-16T10:22:25;16.30;99.90
48860;DHT22;34679;51.436;-2.518;2022-10-16T10:30:48;16.10;99.90
48860;DHT22;34679;51.436;-2.518;2022-10-16T10:33:37;16.10;99.90
48860;DHT22;34679;51.436;-2.518;2022-10-16T10:39:24;16.10;99.90
48860;DHT22;34679;51.436;-2.518;2022-10-16T10:50:03;16.40;99.90
48860;DHT22;34679;51.436;-2.518;2022-10-16T10:55:19;16.20;99.90
48860;DHT22;34679;51.436;-2.518;2022-10-16T11:07:04;16.30;99.90
48860;DHT22;34679;51.436;-2.518;2022-10-16T11:09:36;16.30;99.90
48860;DHT22;34679;51.436;-2.518;2022-10-16T11:12:26;16.20;99.90
48860;DHT22;34679;51.436;-2.518;2022-10-16T11:18:19;16.20;99.90
48860;DHT22;34679;51.436;-2.518;2022-10-16T11:20:54;16.30;99.90
48860;DHT22;34679;51.436;-2.518;2022-10-16T11:25:51;16.40;99.90
48860;DHT22;34679;51.436;-2.518;2022-10-16T11:28:23;16.60;99.90
48860;DHT22;34679;51.436;-2.518;2022-10-16T11:31:02;16.80;99.90
48860;DHT22;34679;51.436;-2.518;2022-10-16T11:33:41;16.90;99.90
48860;DHT22;34679;51.436;-2.518;2022-10-16T11:36:35;16.90;99.90
48860;DHT22;34679;51.436;-2.518;2022-10-16T11:39:21;16.80;99.90
48860;DHT22;34679;51.436;-2.518;2022-10-16T11:42:08;16.70;99.90
48860;DHT22;34679;51.436;-2.518;2022-10-16T11:47:33;16.70;99.90
48860;DHT22;34679;51.436;-2.518;2022-10-16T11:52:57;16.80;99.90
48860;DHT22;34679;51.436;-2.518;2022-10-16T11:55:44;16.70;99.90
48860;DHT22;34679;51.436;-2.518;2022-10-16T11:58:30;16.90;99.90
48860;DHT22;34679;51.436;-2.518;2022-10-16T12:01:28;17.10;99.90
48860;DHT22;34679;51.436;-2.518;2022-10-16T12:04:04;17.20;99.90
48860;DHT22;34679;51.436;-2.518;2022-10-16T12:09:26;17.40;99.90
48860;DHT22;34679;51.436;-2.518;2022-10-16T12:11:53;17.40;99.90
48860;DHT22;34679;51.436;-2.518;2022-10-16T12:16:57;17.10;99.90
48860;DHT22;34679;51.436;-2.518;2022-10-16T12:19:26;17.10;99.90
48860;DHT22;34679;51.436;-2.518;2022-10-16T12:21:55;17.10;99.90
48860;DHT22;34679;51.436;-2.518;2022-10-16T12:24:34;17.00;99.90
48860;DHT22;34679;51.436;-2.518;2022-10-16T12:27:01;17.10;99.90
48860;DHT22;34679;51.436;-2.518;2022-10-16T12:29:38;17.10;99.90
48860;DHT22;34679;51.436;-2.518;2022-10-16T12:34:50;17.20;99.90
48860;DHT22;34679;51.436;-2.518;2022-10-16T12:37:23;17.20;99.90
48860;DHT22;34679;51.436;-2.518;2022-10-16T12:39:50;17.10;99.90
48860;DHT22;34679;51.436;-2.518;2022-10-16T12:42:32;17.10;99.90
48860;DHT22;34679;51.436;-2.518;2022-10-16T12:44:59;17.20;99.90
48860;DHT22;34679;51.436;-2.518;2022-10-16T12:49:59;17.40;99.90
48860;DHT22;34679;51.436;-2.518;2022-10-16T12:52:37;17.40;99.90
48860;DHT22;34679;51.436;-2.518;2022-10-16T12:55:05;17.30;99.90
48860;DHT22;34679;51.436;-2.518;2022-10-16T13:27:33;17.20;99.90
48860;DHT22;34679;51.436;-2.518;2022-10-16T13:30:13;17.20;99.90
48860;DHT22;34679;51.436;-2.518;2022-10-16T13:32:45;17.20;99.90
48860;DHT22;34679;51.436;-2.518;2022-10-16T13:35:27;17.30;99.90
48860;DHT22;34679;51.436;-2.518;2022-10-16T13:38:27;17.30;99.90
48860;DHT22;34679;51.436;-2.518;2022-10-16T13:40:59;17.20;99.90
48860;DHT22;34679;51.436;-2.518;2022-10-16T13:43:42;17.20;99.90
48860;DHT22;34679;51.436;-2.518;2022-10-16T13:46:15;17.00;99.90
48860;DHT22;34679;51.436;-2.518;2022-10-16T13:48:41;17.20;99.90
48860;DHT22;34679;51.436;-2.518;2022-10-16T13:51:15;17.00;99.90
48860;DHT22;34679;51.436;-2.518;2022-10-16T13:53:42;17.00;99.90
48860;DHT22;34679;51.436;-2.518;2022-10-16T13:56:18;17.10;99.90
48860;DHT22;34679;51.436;-2.518;2022-10-16T13:58:45;17.10;99.90
48860;DHT22;34679;51.436;-2.518;2022-10-16T14:01:23;17.20;99.90
48860;DHT22;34679;51.436;-2.518;2022-10-16T14:03:51;17.00;99.90
48860;DHT22;34679;51.436;-2.518;2022-10-16T14:06:21;17.20;99.90
48860;DHT22;34679;51.436;-2.518;2022-10-16T14:09:01;17.30;99.90
48860;DHT22;34679;51.436;-2.518;2022-10-16T14:11:30;17.30;99.90
48860;DHT22;34679;51.436;-2.518;2022-10-16T14:13:56;17.30;99.90
48860;DHT22;34679;51.436;-2.518;2022-10-16T14:16:25;17.30;99.90
48860;DHT22;34679;51.436;-2.518;2022-10-16T14:19:04;17.30;99.90
48860;DHT22;34679;51.436;-2.518;2022-10-16T14:21:36;17.20;99.90
48860;DHT22;34679;51.436;-2.518;2022-10-16T14:24:13;17.10;99.90
48860;DHT22;34679;51.436;-2.518;2022-10-16T14:26:43;17.10;99.90
48860;DHT22;34679;51.436;-2.518;2022-10-16T14:29:15;16.90;99.90
48860;DHT22;34679;51.436;-2.518;2022-10-16T14:31:42;16.90;99.90
48860;DHT22;34679;51.436;-2.518;2022-10-16T14:34:35;17.00;99.90
48860;DHT22;34679;51.436;-2.518;2022-10-16T14:39:33;17.00;99.90
48860;DHT22;34679;51.436;-2.518;2022-10-16T14:41:59;17.10;99.90
48860;DHT22;34679;51.436;-2.518;2022-10-16T14:44:29;16.90;99.90
48860;DHT22;34679;51.436;-2.518;2022-10-16T14:46:56;16.90;99.90
48860;DHT22;34679;51.436;-2.518;2022-10-16T14:49:23;16.80;99.90
48860;DHT22;34679;51.436;-2.518;2022-10-16T14:51:49;16.90;99.90
48860;DHT22;34679;51.436;-2.518;2022-10-16T14:54:17;16.90;99.90
48860;DHT22;34679;51.436;-2.518;2022-10-16T14:56:54;16.80;99.90
48860;DHT22;34679;51.436;-2.518;2022-10-16T14:59:37;16.90;99.90
48860;DHT22;34679;51.436;-2.518;2022-10-16T15:02:28;16.80;99.90
48860;DHT22;34679;51.436;-2.518;2022-10-16T15:04:54;16.80;99.90
48860;DHT22;34679;51.436;-2.518;2022-10-16T15:07:20;16.80;99.90
48860;DHT22;34679;51.436;-2.518;2022-10-16T15:09:46;16.70;99.90
48860;DHT22;34679;51.436;-2.518;2022-10-16T15:12:12;16.70;99.90
48860;DHT22;34679;51.436;-2.518;2022-10-16T15:14:38;16.70;99.90
48860;DHT22;34679;51.436;-2.518;2022-10-16T15:17:04;16.60;99.90
48860;DHT22;34679;51.436;-2.518;2022-10-16T15:19:30;16.60;99.90
48860;DHT22;34679;51.436;-2.518;2022-10-16T15:21:55;16.60;99.90
48860;DHT22;34679;51.436;-2.518;2022-10-16T15:24:21;16.60;99.90
48860;DHT22;34679;51.436;-2.518;2022-10-16T15:26:47;16.60;99.90
48860;DHT22;34679;51.436;-2.518;2022-10-16T15:29:14;16.50;99.90
48860;DHT22;34679;51.436;-2.518;2022-10-16T15:31:40;16.50;99.90
48860;DHT22;34679;51.436;-2.518;2022-10-16T15:34:09;16.50;99.90
48860;DHT22;34679;51.436;-2.518;2022-10-16T15:36:36;16.40;99.90
48860;DHT22;34679;51.436;-2.518;2022-10-16T15:39:15;16.40;99.90
48860;DHT22;34679;51.436;-2.518;2022-10-16T15:41:42;16.30;99.90
48860;DHT22;34679;51.436;-2.518;2022-10-16T15:44:08;16.30;99.90
48860;DHT22;34679;51.436;-2.518;2022-10-16T15:46:33;16.20;99.90
48860;DHT22;34679;51.436;-2.518;2022-10-16T15:49:00;16.20;99.90
48860;DHT22;34679;51.436;-2.518;2022-10-16T15:51:26;16.10;99.90
48860;DHT22;34679;51.436;-2.518;2022-10-16T15:53:58;16.10;99.90
48860;DHT22;34679;51.436;-2.518;2022-10-16T15:56:27;16.10;99.90
48860;DHT22;34679;51.436;-2.518;2022-10-16T15:58:54;16.00;99.90
48860;DHT22;34679;51.436;-2.518;2022-10-16T16:01:20;16.00;99.90
48860;DHT22;34679;51.436;-2.518;2022-10-16T16:03:46;15.90;99.90
48860;DHT22;34679;51.436;-2.518;2022-10-16T16:06:14;15.90;99.90
48860;DHT22;34679;51.436;-2.518;2022-10-16T16:08:41;15.90;99.90
48860;DHT22;34679;51.436;-2.518;2022-10-16T16:11:09;15.90;99.90
48860;DHT22;34679;51.436;-2.518;2022-10-16T16:13:36;15.80;99.90
48860;DHT22;34679;51.436;-2.518;2022-10-16T16:16:08;15.80;99.90
48860;DHT22;34679;51.436;-2.518;2022-10-16T16:18:35;15.80;99.90
48860;DHT22;34679;51.436;-2.518;2022-10-16T16:21:02;15.70;99.90
48860;DHT22;34679;51.436;-2.518;2022-10-16T16:23:29;15.60;99.90
48860;DHT22;34679;51.436;-2.518;2022-10-16T16:26:04;15.60;99.90
48860;DHT22;34679;51.436;-2.518;2022-10-16T16:28:30;15.60;99.90
48860;DHT22;34679;51.436;-2.518;2022-10-16T16:30:56;15.60;99.90
48860;DHT22;34679;51.436;-2.518;2022-10-16T16:33:22;15.50;99.90
48860;DHT22;34679;51.436;-2.518;2022-10-16T16:35:48;15.50;99.90
48860;DHT22;34679;51.436;-2.518;2022-10-16T16:38:13;15.50;99.90
48860;DHT22;34679;51.436;-2.518;2022-10-16T16:40:39;15.50;99.90
48860;DHT22;34679;51.436;-2.518;2022-10-16T16:43:05;15.50;99.90
48860;DHT22;34679;51.436;-2.518;2022-10-16T16:45:34;15.40;99.90
48860;DHT22;34679;51.436;-2.518;2022-10-16T16:48:00;15.30;99.90
48860;DHT22;34679;51.436;-2.518;2022-10-16T16:50:26;15.30;99.90
48860;DHT22;34679;51.436;-2.518;2022-10-16T16:52:51;15.20;99.90
48860;DHT22;34679;51.436;-2.518;2022-10-16T16:55:17;15.10;99.90
48860;DHT22;34679;51.436;-2.518;2022-10-16T16:57:42;15.10;99.90
48860;DHT22;34679;51.436;-2.518;2022-10-16T17:00:09;15.10;99.90
48860;DHT22;34679;51.436;-2.518;2022-10-16T17:02:34;15.00;99.90
48860;DHT22;34679;51.436;-2.518;2022-10-16T17:05:00;15.00;99.90
48860;DHT22;34679;51.436;-2.518;2022-10-16T17:07:26;14.90;99.90
48860;DHT22;34679;51.436;-2.518;2022-10-16T17:09:52;14.90;99.90
48860;DHT22;34679;51.436;-2.518;2022-10-16T17:12:18;14.80;99.90
48860;DHT22;34679;51.436;-2.518;2022-10-16T17:14:43;14.70;99.90
48860;DHT22;34679;51.436;-2.518;2022-10-16T17:17:09;14.70;99.90
48860;DHT22;34679;51.436;-2.518;2022-10-16T17:19:35;14.70;99.90
48860;DHT22;34679;51.436;-2.518;2022-10-16T17:22:01;14.60;99.90
48860;DHT22;34679;51.436;-2.518;2022-10-16T17:24:27;14.60;99.90
48860;DHT22;34679;51.436;-2.518;2022-10-16T17:26:52;14.60;99.90
48860;DHT22;34679;51.436;-2.518;2022-10-16T17:29:18;14.40;99.90